Cumberland, Illinois
Current Conditions -  °F | °C
As of 1:53 PM on Thursday 30 Oct 2014 (Local Time) from KMTO Reporting Station
Broken Clouds Broken Clouds  
Wind Chill: 53°   Ceiling: 7000
Heat Index: 53°   Visibility: 10mi
Dew Point: 36°   Wind: 8mph
Humidity: 52%   Direction: 160°SSE
Pressure: 30.07"   Gusts: NA
Location:  39.2896°N, 88.2485°W
Report Text: KMTO 301853Z AUTO 16007KT 10SM BKN070 BKN120 12/02 A3007 RMK AO2 SLP186 T01170022
Loading
Personal Weather Stations






























Interactive Weather Map
Tropical Storm Tracking
New forecast layout! Learn more

10-Day Weather Forecast

Advertisements
Track Severe Weather on mobile